West Union, Nebraska
Current Conditions -  °F | °C
As of 6:53 PM on Tuesday 21 Oct 2014 (Local Time) from KBBW Reporting Station
Clear Clear  
Wind Chill: 69°   Ceiling: Unl
Heat Index: 69°   Visibility: 10mi
Dew Point: 53°   Wind: 9mph
Humidity: 57%   Direction: 140°SE
Pressure: 29.93"   Gusts: NA
Location:  41.685°N, 99.3848°W
Report Text: KBBW 212353Z AUTO 14008KT 10SM CLR 21/12 A2993 RMK AO2 SLP129 60000 T02060117 10250 20206 55005
Loading
Personal Weather Stations






























Interactive Weather Map
Tropical Storm Tracking
New forecast layout! Learn more

10-Day Weather Forecast

Advertisements
Track Severe Weather on mobile